sensor_id;sensor_type;location;lat;lon;timestamp;pressure;altitude;pressure_sealevel;temperature;humidity
71149;BME280;59072;42.144;25.200;2023-04-06T00:01:18;99836.69;;;4.40;70.41
71149;BME280;59072;42.144;25.200;2023-04-06T00:03:44;99836.56;;;4.27;70.88
71149;BME280;59072;42.144;25.200;2023-04-06T00:06:09;99830.81;;;4.23;70.70
71149;BME280;59072;42.144;25.200;2023-04-06T00:08:35;99820.78;;;4.34;70.35
71149;BME280;59072;42.144;25.200;2023-04-06T00:11:00;99819.78;;;4.20;71.56
71149;BME280;59072;42.144;25.200;2023-04-06T00:13:26;99807.63;;;4.19;71.43
71149;BME280;59072;42.144;25.200;2023-04-06T00:15:51;99798.53;;;4.07;72.52
71149;BME280;59072;42.144;25.200;2023-04-06T00:18:17;99796.41;;;4.17;71.45
71149;BME280;59072;42.144;25.200;2023-04-06T00:20:42;99801.50;;;4.18;71.89
71149;BME280;59072;42.144;25.200;2023-04-06T00:23:08;99800.22;;;4.14;71.90
71149;BME280;59072;42.144;25.200;2023-04-06T00:25:33;99768.84;;;4.05;70.67
71149;BME280;59072;42.144;25.200;2023-04-06T00:27:58;99790.50;;;4.15;70.64
71149;BME280;59072;42.144;25.200;2023-04-06T00:30:24;99788.31;;;4.03;70.75
71149;BME280;59072;42.144;25.200;2023-04-06T00:32:49;99784.50;;;3.91;70.26
71149;BME280;59072;42.144;25.200;2023-04-06T00:35:15;99791.88;;;3.81;70.85
71149;BME280;59072;42.144;25.200;2023-04-06T00:37:40;99781.22;;;3.74;70.69
71149;BME280;59072;42.144;25.200;2023-04-06T00:40:06;99785.84;;;3.57;70.69
71149;BME280;59072;42.144;25.200;2023-04-06T00:42:32;99772.09;;;3.47;70.93
71149;BME280;59072;42.144;25.200;2023-04-06T00:44:59;99787.19;;;3.53;71.13
71149;BME280;59072;42.144;25.200;2023-04-06T00:47:25;99788.47;;;3.57;71.65
71149;BME280;59072;42.144;25.200;2023-04-06T00:49:52;99796.94;;;3.53;71.04
71149;BME280;59072;42.144;25.200;2023-04-06T00:52:18;99799.56;;;3.53;70.90
71149;BME280;59072;42.144;25.200;2023-04-06T00:54:43;99795.41;;;3.58;71.54
71149;BME280;59072;42.144;25.200;2023-04-06T00:57:10;99797.75;;;3.53;70.50
71149;BME280;59072;42.144;25.200;2023-04-06T00:59:36;99794.19;;;3.46;70.72
71149;BME280;59072;42.144;25.200;2023-04-06T01:02:01;99801.63;;;3.42;71.30
71149;BME280;59072;42.144;25.200;2023-04-06T01:04:27;99795.56;;;3.42;71.70
71149;BME280;59072;42.144;25.200;2023-04-06T01:06:52;99779.38;;;3.45;69.81
71149;BME280;59072;42.144;25.200;2023-04-06T01:09:18;99791.91;;;3.43;71.55
71149;BME280;59072;42.144;25.200;2023-04-06T01:11:43;99796.03;;;3.60;70.55
71149;BME280;59072;42.144;25.200;2023-04-06T01:14:09;99794.75;;;3.56;70.89
71149;BME280;59072;42.144;25.200;2023-04-06T01:16:35;99797.19;;;3.43;71.28
71149;BME280;59072;42.144;25.200;2023-04-06T01:19:10;99784.38;;;3.40;73.16
71149;BME280;59072;42.144;25.200;2023-04-06T01:21:36;99789.72;;;3.32;73.25
71149;BME280;59072;42.144;25.200;2023-04-06T01:24:02;99776.88;;;3.29;73.57
71149;BME280;59072;42.144;25.200;2023-04-06T01:26:28;99766.22;;;3.07;75.07
71149;BME280;59072;42.144;25.200;2023-04-06T01:28:55;99767.34;;;3.28;74.99
71149;BME280;59072;42.144;25.200;2023-04-06T01:31:21;99764.06;;;3.26;73.38
71149;BME280;59072;42.144;25.200;2023-04-06T01:33:46;99766.03;;;2.86;74.62
71149;BME280;59072;42.144;25.200;2023-04-06T01:36:12;99768.91;;;2.99;73.35
71149;BME280;59072;42.144;25.200;2023-04-06T01:38:37;99767.03;;;2.85;73.98
71149;BME280;59072;42.144;25.200;2023-04-06T01:41:03;99764.34;;;2.93;74.68
71149;BME280;59072;42.144;25.200;2023-04-06T01:43:28;99767.50;;;2.65;77.07
71149;BME280;59072;42.144;25.200;2023-04-06T01:45:54;99767.38;;;2.58;78.22
71149;BME280;59072;42.144;25.200;2023-04-06T01:48:19;99771.69;;;2.51;79.67
71149;BME280;59072;42.144;25.200;2023-04-06T01:50:45;99771.81;;;2.58;78.61
71149;BME280;59072;42.144;25.200;2023-04-06T01:53:10;99781.88;;;2.77;77.50
71149;BME280;59072;42.144;25.200;2023-04-06T01:55:36;99769.47;;;2.63;79.72
71149;BME280;59072;42.144;25.200;2023-04-06T01:58:01;99777.31;;;2.71;78.92
71149;BME280;59072;42.144;25.200;2023-04-06T02:00:26;99775.91;;;2.84;76.94
71149;BME280;59072;42.144;25.200;2023-04-06T02:02:52;99784.47;;;2.86;76.30
71149;BME280;59072;42.144;25.200;2023-04-06T02:05:18;99776.50;;;2.94;75.39
71149;BME280;59072;42.144;25.200;2023-04-06T02:07:44;99786.09;;;3.10;75.64
71149;BME280;59072;42.144;25.200;2023-04-06T02:10:14;99765.13;;;3.16;73.87
71149;BME280;59072;42.144;25.200;2023-04-06T02:12:39;99774.84;;;3.16;75.11
71149;BME280;59072;42.144;25.200;2023-04-06T02:15:05;99775.47;;;3.03;75.29
71149;BME280;59072;42.144;25.200;2023-04-06T02:17:31;99771.47;;;3.07;75.65
71149;BME280;59072;42.144;25.200;2023-04-06T02:19:56;99770.59;;;3.15;76.16
71149;BME280;59072;42.144;25.200;2023-04-06T02:22:21;99771.47;;;3.07;77.77
71149;BME280;59072;42.144;25.200;2023-04-06T02:24:47;99766.28;;;2.99;77.06
71149;BME280;59072;42.144;25.200;2023-04-06T02:27:14;99761.75;;;3.08;75.55
71149;BME280;59072;42.144;25.200;2023-04-06T02:29:39;99766.81;;;2.94;75.73
71149;BME280;59072;42.144;25.200;2023-04-06T02:32:05;99767.63;;;2.95;75.79
71149;BME280;59072;42.144;25.200;2023-04-06T02:34:31;99752.75;;;2.79;76.74
71149;BME280;59072;42.144;25.200;2023-04-06T02:36:56;99769.50;;;2.86;76.88
71149;BME280;59072;42.144;25.200;2023-04-06T02:39:22;99766.09;;;3.00;76.61
71149;BME280;59072;42.144;25.200;2023-04-06T02:41:48;99767.31;;;2.90;77.58
71149;BME280;59072;42.144;25.200;2023-04-06T02:44:13;99767.50;;;2.88;77.68
71149;BME280;59072;42.144;25.200;2023-04-06T02:46:39;99774.47;;;2.81;77.59
71149;BME280;59072;42.144;25.200;2023-04-06T02:49:05;99773.41;;;2.67;78.48
71149;BME280;59072;42.144;25.200;2023-04-06T02:51:30;99770.44;;;2.70;77.74
71149;BME280;59072;42.144;25.200;2023-04-06T02:53:56;99772.41;;;2.68;77.18
71149;BME280;59072;42.144;25.200;2023-04-06T02:56:21;99750.78;;;2.58;77.39
71149;BME280;59072;42.144;25.200;2023-04-06T02:58:47;99765.16;;;2.70;77.63
71149;BME280;59072;42.144;25.200;2023-04-06T03:01:12;99766.06;;;2.31;79.00
71149;BME280;59072;42.144;25.200;2023-04-06T03:03:38;99758.06;;;2.16;79.21
71149;BME280;59072;42.144;25.200;2023-04-06T03:06:03;99762.78;;;2.29;80.08
71149;BME280;59072;42.144;25.200;2023-04-06T03:08:29;99762.63;;;2.54;77.47
71149;BME280;59072;42.144;25.200;2023-04-06T03:10:55;99755.81;;;2.68;74.36
71149;BME280;59072;42.144;25.200;2023-04-06T03:13:21;99767.84;;;2.62;75.69
71149;BME280;59072;42.144;25.200;2023-04-06T03:15:46;99767.84;;;2.62;75.50
71149;BME280;59072;42.144;25.200;2023-04-06T03:18:12;99777.69;;;2.68;75.39
71149;BME280;59072;42.144;25.200;2023-04-06T03:20:37;99746.84;;;2.22;78.08
71149;BME280;59072;42.144;25.200;2023-04-06T03:23:02;99764.84;;;2.42;78.29
71149;BME280;59072;42.144;25.200;2023-04-06T03:25:28;99764.06;;;2.33;78.51
71149;BME280;59072;42.144;25.200;2023-04-06T03:27:55;99763.03;;;2.42;78.80
71149;BME280;59072;42.144;25.200;2023-04-06T03:30:20;99763.03;;;2.42;79.86
71149;BME280;59072;42.144;25.200;2023-04-06T03:32:46;99756.84;;;2.58;77.86
71149;BME280;59072;42.144;25.200;2023-04-06T03:35:11;99761.25;;;2.35;79.03
71149;BME280;59072;42.144;25.200;2023-04-06T03:37:37;99764.19;;;2.40;78.52
71149;BME280;59072;42.144;25.200;2023-04-06T03:40:03;99756.56;;;2.22;79.56
71149;BME280;59072;42.144;25.200;2023-04-06T03:42:29;99760.94;;;1.98;80.97
71149;BME280;59072;42.144;25.200;2023-04-06T03:44:54;99761.06;;;2.05;81.60
71149;BME280;59072;42.144;25.200;2023-04-06T03:47:20;99766.47;;;2.12;80.96
71149;BME280;59072;42.144;25.200;2023-04-06T03:49:45;99770.22;;;1.78;82.66
71149;BME280;59072;42.144;25.200;2023-04-06T03:52:11;99772.88;;;1.70;82.62
71149;BME280;59072;42.144;25.200;2023-04-06T03:54:36;99757.97;;;1.54;85.81
71149;BME280;59072;42.144;25.200;2023-04-06T03:57:02;99775.16;;;1.73;84.99
71149;BME280;59072;42.144;25.200;2023-04-06T03:59:27;99769.22;;;1.79;83.67
71149;BME280;59072;42.144;25.200;2023-04-06T04:01:53;99775.97;;;1.65;86.08
71149;BME280;59072;42.144;25.200;2023-04-06T04:04:18;99767.00;;;1.59;86.29
71149;BME280;59072;42.144;25.200;2023-04-06T04:06:44;99769.78;;;1.58;85.79
71149;BME280;59072;42.144;25.200;2023-04-06T04:09:10;99777.50;;;1.59;85.77
71149;BME280;59072;42.144;25.200;2023-04-06T04:11:35;99765.03;;;2.01;85.20
71149;BME280;59072;42.144;25.200;2023-04-06T04:14:00;99768.41;;;2.18;83.70
71149;BME280;59072;42.144;25.200;2023-04-06T04:16:26;99773.88;;;2.48;80.89
71149;BME280;59072;42.144;25.200;2023-04-06T04:18:51;99774.16;;;2.53;79.16
71149;BME280;59072;42.144;25.200;2023-04-06T04:21:17;99767.22;;;2.60;78.33
71149;BME280;59072;42.144;25.200;2023-04-06T04:23:42;99779.16;;;2.71;78.60
71149;BME280;59072;42.144;25.200;2023-04-06T04:26:08;99784.78;;;2.59;78.70
71149;BME280;59072;42.144;25.200;2023-04-06T04:28:34;99782.94;;;2.68;78.16
71149;BME280;59072;42.144;25.200;2023-04-06T04:30:59;99781.59;;;2.72;78.77
71149;BME280;59072;42.144;25.200;2023-04-06T04:33:25;99788.81;;;3.01;76.63
71149;BME280;59072;42.144;25.200;2023-04-06T04:35:50;99783.44;;;2.95;77.59
71149;BME280;59072;42.144;25.200;2023-04-06T04:38:15;99784.84;;;3.20;76.09
71149;BME280;59072;42.144;25.200;2023-04-06T04:40:41;99776.94;;;3.20;75.38
71149;BME280;59072;42.144;25.200;2023-04-06T04:43:06;99789.78;;;3.24;75.62
71149;BME280;59072;42.144;25.200;2023-04-06T04:45:32;99777.31;;;3.17;74.42
71149;BME280;59072;42.144;25.200;2023-04-06T04:47:57;99791.03;;;3.13;75.28
71149;BME280;59072;42.144;25.200;2023-04-06T04:50:23;99797.13;;;3.13;75.42
71149;BME280;59072;42.144;25.200;2023-04-06T04:52:48;99794.34;;;3.30;74.65
71149;BME280;59072;42.144;25.200;2023-04-06T04:55:14;99795.31;;;3.29;75.47
71149;BME280;59072;42.144;25.200;2023-04-06T04:57:39;99796.38;;;3.42;74.49
71149;BME280;59072;42.144;25.200;2023-04-06T05:00:05;99792.38;;;3.47;74.69
71149;BME280;59072;42.144;25.200;2023-04-06T05:02:31;99801.84;;;3.56;73.93
71149;BME280;59072;42.144;25.200;2023-04-06T05:04:56;99796.47;;;3.49;75.34
71149;BME280;59072;42.144;25.200;2023-04-06T05:07:22;99794.13;;;3.84;75.46
71149;BME280;59072;42.144;25.200;2023-04-06T05:09:47;99792.69;;;3.96;74.16
71149;BME280;59072;42.144;25.200;2023-04-06T05:12:13;99802.84;;;4.14;72.50
71149;BME280;59072;42.144;25.200;2023-04-06T05:14:38;99787.91;;;4.36;72.72
71149;BME280;59072;42.144;25.200;2023-04-06T05:17:04;99784.19;;;4.46;71.47
71149;BME280;59072;42.144;25.200;2023-04-06T05:19:30;99772.06;;;4.36;73.45
71149;BME280;59072;42.144;25.200;2023-04-06T05:21:55;99801.31;;;4.71;73.39
71149;BME280;59072;42.144;25.200;2023-04-06T05:24:21;99793.56;;;4.70;70.63
71149;BME280;59072;42.144;25.200;2023-04-06T05:26:47;99781.78;;;4.51;71.00
71149;BME280;59072;42.144;25.200;2023-04-06T05:29:13;99779.00;;;4.37;72.12
71149;BME280;59072;42.144;25.200;2023-04-06T05:31:38;99777.00;;;4.39;72.92
71149;BME280;59072;42.144;25.200;2023-04-06T05:34:04;99774.97;;;4.41;72.10
71149;BME280;59072;42.144;25.200;2023-04-06T05:36:30;99778.06;;;4.45;73.53
71149;BME280;59072;42.144;25.200;2023-04-06T05:38:57;99783.94;;;4.62;71.30
71149;BME280;59072;42.144;25.200;2023-04-06T05:41:23;99784.56;;;4.64;72.39
71149;BME280;59072;42.144;25.200;2023-04-06T05:43:49;99775.63;;;4.65;70.85
71149;BME280;59072;42.144;25.200;2023-04-06T05:46:14;99776.38;;;4.59;70.99
71149;BME280;59072;42.144;25.200;2023-04-06T05:48:40;99771.00;;;4.89;69.16
71149;BME280;59072;42.144;25.200;2023-04-06T05:51:05;99772.81;;;5.10;68.73
71149;BME280;59072;42.144;25.200;2023-04-06T05:53:32;99777.53;;;5.14;67.56
71149;BME280;59072;42.144;25.200;2023-04-06T05:56:00;99772.00;;;5.09;69.12
71149;BME280;59072;42.144;25.200;2023-04-06T05:58:26;99767.56;;;5.16;69.45
71149;BME280;59072;42.144;25.200;2023-04-06T06:00:59;99768.38;;;5.17;68.66
71149;BME280;59072;42.144;25.200;2023-04-06T06:03:25;99772.78;;;5.59;67.29
71149;BME280;59072;42.144;25.200;2023-04-06T06:05:50;99753.84;;;5.28;66.74
71149;BME280;59072;42.144;25.200;2023-04-06T06:08:16;99762.88;;;5.40;66.99
71149;BME280;59072;42.144;25.200;2023-04-06T06:10:41;99762.84;;;5.33;67.71
71149;BME280;59072;42.144;25.200;2023-04-06T06:13:07;99754.94;;;5.40;67.15
71149;BME280;59072;42.144;25.200;2023-04-06T06:15:33;99738.47;;;5.38;67.48
71149;BME280;59072;42.144;25.200;2023-04-06T06:17:58;99745.53;;;5.66;67.45
71149;BME280;59072;42.144;25.200;2023-04-06T06:20:24;99752.78;;;5.85;68.00
71149;BME280;59072;42.144;25.200;2023-04-06T06:22:49;99755.00;;;5.81;66.33
71149;BME280;59072;42.144;25.200;2023-04-06T06:25:15;99747.19;;;6.01;67.01
71149;BME280;59072;42.144;25.200;2023-04-06T06:27:40;99755.59;;;6.18;66.59
71149;BME280;59072;42.144;25.200;2023-04-06T06:30:07;99757.63;;;6.10;66.79
71149;BME280;59072;42.144;25.200;2023-04-06T06:32:32;99749.44;;;6.04;66.64
71149;BME280;59072;42.144;25.200;2023-04-06T06:34:58;99745.81;;;6.12;65.34
71149;BME280;59072;42.144;25.200;2023-04-06T06:37:23;99748.66;;;6.11;64.05
71149;BME280;59072;42.144;25.200;2023-04-06T06:39:48;99749.41;;;5.98;65.29
71149;BME280;59072;42.144;25.200;2023-04-06T06:42:14;99751.38;;;5.89;64.80
71149;BME280;59072;42.144;25.200;2023-04-06T06:44:39;99745.78;;;5.99;65.89
71149;BME280;59072;42.144;25.200;2023-04-06T06:47:05;99740.69;;;6.04;64.85
71149;BME280;59072;42.144;25.200;2023-04-06T06:49:30;99731.06;;;5.96;64.81
71149;BME280;59072;42.144;25.200;2023-04-06T06:51:56;99749.94;;;6.28;64.24
71149;BME280;59072;42.144;25.200;2023-04-06T06:54:21;99740.16;;;6.22;65.62
71149;BME280;59072;42.144;25.200;2023-04-06T06:56:46;99746.16;;;6.51;65.49
71149;BME280;59072;42.144;25.200;2023-04-06T06:59:12;99750.44;;;6.58;64.74
71149;BME280;59072;42.144;25.200;2023-04-06T07:01:37;99755.50;;;6.47;63.76
71149;BME280;59072;42.144;25.200;2023-04-06T07:04:03;99756.19;;;6.62;65.29
71149;BME280;59072;42.144;25.200;2023-04-06T07:06:28;99754.94;;;6.64;63.41
71149;BME280;59072;42.144;25.200;2023-04-06T07:08:54;99760.91;;;6.93;64.79
71149;BME280;59072;42.144;25.200;2023-04-06T07:11:20;99752.56;;;7.03;63.06
71149;BME280;59072;42.144;25.200;2023-04-06T07:13:46;99761.13;;;7.05;62.37
71149;BME280;59072;42.144;25.200;2023-04-06T07:16:11;99760.94;;;7.13;62.38
71149;BME280;59072;42.144;25.200;2023-04-06T07:18:36;99743.97;;;7.14;61.80
71149;BME280;59072;42.144;25.200;2023-04-06T07:21:02;99765.19;;;7.14;61.84
71149;BME280;59072;42.144;25.200;2023-04-06T07:23:28;99754.59;;;7.34;62.78
71149;BME280;59072;42.144;25.200;2023-04-06T07:25:53;99769.84;;;7.65;60.60
71149;BME280;59072;42.144;25.200;2023-04-06T07:28:19;99766.56;;;7.77;61.12
71149;BME280;59072;42.144;25.200;2023-04-06T07:30:45;99753.81;;;8.05;63.44
71149;BME280;59072;42.144;25.200;2023-04-06T07:33:11;99753.97;;;8.24;60.67
71149;BME280;59072;42.144;25.200;2023-04-06T07:35:37;99747.06;;;8.10;60.08
71149;BME280;59072;42.144;25.200;2023-04-06T07:38:03;99754.41;;;8.14;60.12
71149;BME280;59072;42.144;25.200;2023-04-06T07:40:28;99758.84;;;8.27;62.27
71149;BME280;59072;42.144;25.200;2023-04-06T07:42:54;99769.00;;;8.50;58.58
71149;BME280;59072;42.144;25.200;2023-04-06T07:45:20;99755.28;;;8.01;57.58
71149;BME280;59072;42.144;25.200;2023-04-06T07:47:45;99764.22;;;8.14;58.21
71149;BME280;59072;42.144;25.200;2023-04-06T07:50:11;99754.25;;;7.96;58.36
71149;BME280;59072;42.144;25.200;2023-04-06T07:52:37;99751.34;;;8.17;60.45
71149;BME280;59072;42.144;25.200;2023-04-06T07:55:03;99751.97;;;8.06;57.14
71149;BME280;59072;42.144;25.200;2023-04-06T07:57:29;99748.06;;;8.15;58.05
71149;BME280;59072;42.144;25.200;2023-04-06T07:59:55;99747.66;;;8.63;58.47
71149;BME280;59072;42.144;25.200;2023-04-06T08:02:20;99752.09;;;8.70;56.15
71149;BME280;59072;42.144;25.200;2023-04-06T08:04:46;99754.19;;;8.93;56.15
71149;BME280;59072;42.144;25.200;2023-04-06T08:10:33;99751.56;;;9.43;54.54
71149;BME280;59072;42.144;25.200;2023-04-06T08:13:00;99742.97;;;9.41;55.21
71149;BME280;59072;42.144;25.200;2023-04-06T08:15:25;99749.22;;;9.28;54.01
71149;BME280;59072;42.144;25.200;2023-04-06T08:17:51;99744.97;;;9.45;54.68
71149;BME280;59072;42.144;25.200;2023-04-06T08:20:16;99750.53;;;9.44;53.18
71149;BME280;59072;42.144;25.200;2023-04-06T08:22:42;99737.66;;;9.41;55.51
71149;BME280;59072;42.144;25.200;2023-04-06T08:25:07;99738.34;;;9.92;54.75
71149;BME280;59072;42.144;25.200;2023-04-06T08:27:33;99734.88;;;9.73;51.00
71149;BME280;59072;42.144;25.200;2023-04-06T08:29:58;99752.97;;;9.64;51.84
71149;BME280;59072;42.144;25.200;2023-04-06T08:32:24;99726.13;;;9.65;56.08
71149;BME280;59072;42.144;25.200;2023-04-06T08:34:53;99717.28;;;9.72;53.86
71149;BME280;59072;42.144;25.200;2023-04-06T08:37:19;99721.69;;;9.96;55.90
71149;BME280;59072;42.144;25.200;2023-04-06T08:39:44;99718.00;;;10.16;53.32
71149;BME280;59072;42.144;25.200;2023-04-06T08:42:14;99707.47;;;10.21;53.73
71149;BME280;59072;42.144;25.200;2023-04-06T08:44:41;99705.16;;;10.24;54.02
71149;BME280;59072;42.144;25.200;2023-04-06T08:47:06;99705.25;;;10.18;53.81
71149;BME280;59072;42.144;25.200;2023-04-06T08:49:32;99715.44;;;10.39;52.02
71149;BME280;59072;42.144;25.200;2023-04-06T08:52:00;99706.22;;;10.05;53.50
71149;BME280;59072;42.144;25.200;2023-04-06T08:54:25;99699.06;;;10.05;51.26
71149;BME280;59072;42.144;25.200;2023-04-06T08:56:52;99703.28;;;10.43;51.25
71149;BME280;59072;42.144;25.200;2023-04-06T08:59:18;99700.41;;;10.87;53.98
71149;BME280;59072;42.144;25.200;2023-04-06T09:01:44;99697.47;;;10.89;51.65
71149;BME280;59072;42.144;25.200;2023-04-06T09:04:11;99701.53;;;10.79;49.90
71149;BME280;59072;42.144;25.200;2023-04-06T09:06:37;99700.34;;;10.63;50.75
71149;BME280;59072;42.144;25.200;2023-04-06T09:09:02;99692.97;;;10.77;50.35
71149;BME280;59072;42.144;25.200;2023-04-06T09:11:28;99695.78;;;11.30;53.55
71149;BME280;59072;42.144;25.200;2023-04-06T09:13:55;99712.94;;;11.57;47.89
71149;BME280;59072;42.144;25.200;2023-04-06T09:16:22;99696.31;;;11.91;49.47
71149;BME280;59072;42.144;25.200;2023-04-06T09:18:48;99694.53;;;11.96;49.46
71149;BME280;59072;42.144;25.200;2023-04-06T09:21:17;99677.78;;;12.30;50.30
71149;BME280;59072;42.144;25.200;2023-04-06T09:23:43;99693.75;;;11.84;49.24
71149;BME280;59072;42.144;25.200;2023-04-06T09:26:11;99681.56;;;11.64;47.43
71149;BME280;59072;42.144;25.200;2023-04-06T09:28:49;99663.16;;;12.03;49.34
71149;BME280;59072;42.144;25.200;2023-04-06T09:31:16;99681.53;;;11.88;49.48
71149;BME280;59072;42.144;25.200;2023-04-06T09:33:44;99681.13;;;11.68;48.66
71149;BME280;59072;42.144;25.200;2023-04-06T09:36:11;99679.47;;;11.90;50.31
71149;BME280;59072;42.144;25.200;2023-04-06T09:38:38;99682.81;;;11.97;46.53
71149;BME280;59072;42.144;25.200;2023-04-06T09:41:03;99667.75;;;12.20;47.97
71149;BME280;59072;42.144;25.200;2023-04-06T09:43:29;99672.03;;;11.92;47.95
71149;BME280;59072;42.144;25.200;2023-04-06T09:45:56;99672.03;;;12.21;46.16
71149;BME280;59072;42.144;25.200;2023-04-06T09:48:24;99666.38;;;12.63;47.72
71149;BME280;59072;42.144;25.200;2023-04-06T09:50:53;99671.06;;;12.90;46.17
71149;BME280;59072;42.144;25.200;2023-04-06T09:53:26;99668.00;;;12.98;44.20
71149;BME280;59072;42.144;25.200;2023-04-06T09:55:57;99664.50;;;13.53;43.81
71149;BME280;59072;42.144;25.200;2023-04-06T09:58:23;99666.06;;;13.49;46.78
71149;BME280;59072;42.144;25.200;2023-04-06T10:03:28;99658.09;;;12.98;44.51
71149;BME280;59072;42.144;25.200;2023-04-06T10:06:04;99652.50;;;13.00;46.11
71149;BME280;59072;42.144;25.200;2023-04-06T10:08:33;99647.84;;;13.29;45.39
71149;BME280;59072;42.144;25.200;2023-04-06T10:11:00;99674.13;;;13.15;46.30
71149;BME280;59072;42.144;25.200;2023-04-06T10:13:26;99660.38;;;12.90;45.66
71149;BME280;59072;42.144;25.200;2023-04-06T10:15:52;99645.19;;;13.12;44.62
71149;BME280;59072;42.144;25.200;2023-04-06T10:18:19;99657.72;;;13.45;41.82
71149;BME280;59072;42.144;25.200;2023-04-06T10:20:54;99647.31;;;13.49;44.60
71149;BME280;59072;42.144;25.200;2023-04-06T10:23:37;99640.56;;;13.69;44.02
71149;BME280;59072;42.144;25.200;2023-04-06T10:26:05;99615.69;;;13.95;41.47
71149;BME280;59072;42.144;25.200;2023-04-06T10:28:34;99636.09;;;14.51;43.02
71149;BME280;59072;42.144;25.200;2023-04-06T10:31:04;99637.81;;;14.62;42.03
71149;BME280;59072;42.144;25.200;2023-04-06T10:33:30;99637.78;;;14.94;41.61
71149;BME280;59072;42.144;25.200;2023-04-06T10:35:56;99632.53;;;14.72;39.51
71149;BME280;59072;42.144;25.200;2023-04-06T10:38:33;99632.50;;;15.04;42.13
71149;BME280;59072;42.144;25.200;2023-04-06T10:41:04;99633.44;;;15.31;40.09
71149;BME280;59072;42.144;25.200;2023-04-06T10:43:33;99635.91;;;14.95;42.04
71149;BME280;59072;42.144;25.200;2023-04-06T10:46:00;99625.56;;;14.71;41.68
71149;BME280;59072;42.144;25.200;2023-04-06T10:48:38;99617.44;;;14.66;40.69
71149;BME280;59072;42.144;25.200;2023-04-06T10:51:09;99626.03;;;15.05;38.90
71149;BME280;59072;42.144;25.200;2023-04-06T10:53:35;99622.03;;;15.08;39.40
71149;BME280;59072;42.144;25.200;2023-04-06T10:56:02;99625.91;;;15.27;37.45
71149;BME280;59072;42.144;25.200;2023-04-06T10:58:28;99623.13;;;15.70;38.81
71149;BME280;59072;42.144;25.200;2023-04-06T11:00:55;99610.63;;;15.96;41.54
71149;BME280;59072;42.144;25.200;2023-04-06T11:03:21;99612.00;;;16.19;38.12
71149;BME280;59072;42.144;25.200;2023-04-06T11:05:50;99606.84;;;15.92;38.12
71149;BME280;59072;42.144;25.200;2023-04-06T11:08:31;99604.19;;;16.28;38.71
71149;BME280;59072;42.144;25.200;2023-04-06T11:11:08;99610.13;;;16.25;38.74
71149;BME280;59072;42.144;25.200;2023-04-06T11:16:06;99607.16;;;16.16;34.97
71149;BME280;59072;42.144;25.200;2023-04-06T11:18:32;99601.25;;;16.24;36.05
71149;BME280;59072;42.144;25.200;2023-04-06T11:20:57;99598.56;;;16.24;36.48
71149;BME280;59072;42.144;25.200;2023-04-06T11:23:25;99602.03;;;17.02;36.91
71149;BME280;59072;42.144;25.200;2023-04-06T11:25:52;99599.28;;;17.27;35.04
71149;BME280;59072;42.144;25.200;2023-04-06T11:28:18;99600.00;;;17.54;32.04
71149;BME280;59072;42.144;25.200;2023-04-06T11:30:45;99589.94;;;17.70;33.87
71149;BME280;59072;42.144;25.200;2023-04-06T11:33:10;99595.47;;;17.39;35.28
71149;BME280;59072;42.144;25.200;2023-04-06T11:35:37;99585.34;;;16.02;36.86
71149;BME280;59072;42.144;25.200;2023-04-06T11:38:03;99583.22;;;16.25;34.31
71149;BME280;59072;42.144;25.200;2023-04-06T11:40:29;99572.97;;;16.73;37.12
71149;BME280;59072;42.144;25.200;2023-04-06T11:42:55;99569.97;;;17.11;33.90
71149;BME280;59072;42.144;25.200;2023-04-06T11:45:22;99557.28;;;17.11;36.57
71149;BME280;59072;42.144;25.200;2023-04-06T11:47:59;99575.88;;;17.78;36.94
71149;BME280;59072;42.144;25.200;2023-04-06T11:50:31;99578.97;;;18.05;32.61
71149;BME280;59072;42.144;25.200;2023-04-06T11:52:59;99573.84;;;18.38;35.48
71149;BME280;59072;42.144;25.200;2023-04-06T11:55:37;99562.41;;;18.52;32.80
71149;BME280;59072;42.144;25.200;2023-04-06T11:58:03;99575.66;;;18.77;31.31
71149;BME280;59072;42.144;25.200;2023-04-06T12:00:29;99557.34;;;18.11;31.16
71149;BME280;59072;42.144;25.200;2023-04-06T12:02:59;99559.41;;;19.12;33.08
71149;BME280;59072;42.144;25.200;2023-04-06T12:05:25;99551.06;;;19.08;30.61
71149;BME280;59072;42.144;25.200;2023-04-06T12:07:50;99559.84;;;18.36;30.57
71149;BME280;59072;42.144;25.200;2023-04-06T12:10:16;99560.94;;;18.35;32.88
71149;BME280;59072;42.144;25.200;2023-04-06T12:12:41;99558.22;;;17.51;32.23
71149;BME280;59072;42.144;25.200;2023-04-06T12:15:07;99561.19;;;17.44;32.73
71149;BME280;59072;42.144;25.200;2023-04-06T12:17:33;99537.88;;;17.19;36.36
71149;BME280;59072;42.144;25.200;2023-04-06T12:19:58;99538.47;;;16.96;32.96
71149;BME280;59072;42.144;25.200;2023-04-06T12:22:24;99549.84;;;16.21;32.23
71149;BME280;59072;42.144;25.200;2023-04-06T12:24:49;99552.25;;;16.74;32.49
71149;BME280;59072;42.144;25.200;2023-04-06T12:27:15;99550.34;;;16.90;33.30
71149;BME280;59072;42.144;25.200;2023-04-06T12:29:40;99542.81;;;16.61;35.03
71149;BME280;59072;42.144;25.200;2023-04-06T12:32:06;99535.56;;;17.52;31.61
71149;BME280;59072;42.144;25.200;2023-04-06T12:34:31;99541.19;;;18.69;29.36
71149;BME280;59072;42.144;25.200;2023-04-06T12:36:57;99544.31;;;19.30;29.74
71149;BME280;59072;42.144;25.200;2023-04-06T12:39:23;99544.88;;;19.51;31.01
71149;BME280;59072;42.144;25.200;2023-04-06T12:41:49;99544.03;;;19.31;29.98
71149;BME280;59072;42.144;25.200;2023-04-06T12:44:14;99540.47;;;18.87;32.40
71149;BME280;59072;42.144;25.200;2023-04-06T12:46:39;99527.09;;;19.01;30.92
71149;BME280;59072;42.144;25.200;2023-04-06T12:49:05;99540.84;;;19.48;27.96
71149;BME280;59072;42.144;25.200;2023-04-06T12:51:31;99531.53;;;19.97;27.34
71149;BME280;59072;42.144;25.200;2023-04-06T12:53:57;99519.09;;;20.62;27.65
71149;BME280;59072;42.144;25.200;2023-04-06T12:56:22;99531.91;;;19.72;27.10
71149;BME280;59072;42.144;25.200;2023-04-06T12:58:50;99526.50;;;17.82;28.60
71149;BME280;59072;42.144;25.200;2023-04-06T13:01:15;99529.00;;;17.68;28.53